Big Bear Station Historical Data
Daily Summary for March 13, 2017 Units:  English    Metric   Both
« Previous Day
Next Day »
Daily Weekly Monthly Yearly Custom
  High: Low: Average:
Temperature: 67.3 °F 29.7 °F 52 °F
Dew Point: 34.2 °F 26.1 °F 31.2 °F
Humidity: 94 % 23 % 50 %
Wind Speed: 6.3 mph 0.0 mph 1.5 mph
Wind Gust: -999.0 mph - -
Wind:- - West
Pressure: 30.33 in 30.28 in -
Precipitation: 0.00 in    
Historical Graphs
 
 
Tabular Data for March 13, 2017
Time Temperature Dew Point Pressure Wind Wind Speed Wind Gust Humidity Rainfall Rate (Hourly)
07:54 29.7 °F 28.2 °F 30.31 in Calm   -999.0 mph 94 % 0 in
08:11 30.9 °F 28.6 °F 30.31 in Calm   -999.0 mph 91 % 0 in
08:26 34.0 °F 30.0 °F 30.31 in Calm   -999.0 mph 85 % 0 in
08:41 34.7 °F 30.4 °F 30.31 in Calm   -999.0 mph 84 % 0 in
08:56 35.2 °F 30.9 °F 30.32 in Calm   -999.0 mph 84 % 0 in
09:12 38.3 °F 33.6 °F 30.32 in Calm   -999.0 mph 83 % 0 in
09:27 38.1 °F 27.4 °F 30.32 in Calm   -999.0 mph 65 % 0 in
09:42 40.6 °F 26.1 °F 30.32 in Calm   -999.0 mph 56 % 0 in
09:57 44.8 °F 27.3 °F 30.32 in Calm   -999.0 mph 50 % 0 in
10:12 48.0 °F 26.6 °F 30.32 in WNW 1.7 mph -999.0 mph 43 % 0 in
10:28 50.7 °F 29.0 °F 30.32 in WNW 2.7 mph -999.0 mph 43 % 0 in
10:43 53.4 °F 30.3 °F 30.31 in WNW 1.7 mph -999.0 mph 41 % 0 in
10:58 58.5 °F 28.7 °F 30.31 in West 2.2 mph -999.0 mph 32 % 0 in
11:13 60.1 °F 30.9 °F 30.31 in NW 3.2 mph -999.0 mph 33 % 0 in
11:29 60.8 °F 33.0 °F 30.31 in NW 2.7 mph -999.0 mph 35 % 0 in
11:44 61.5 °F 32.1 °F 30.31 in NNW 2.7 mph -999.0 mph 33 % 0 in
11:59 63.0 °F 30.2 °F 30.31 in NW 2.7 mph -999.0 mph 29 % 0 in
12:14 64.0 °F 29.3 °F 30.31 in NNW 2.2 mph -999.0 mph 27 % 0 in
12:29 64.0 °F 31.1 °F 30.31 in WNW 3.7 mph -999.0 mph 29 % 0 in
12:45 65.3 °F 29.5 °F 30.31 in NNW 3.7 mph -999.0 mph 26 % 0 in
13:00 65.3 °F 29.5 °F 30.30 in NW 2.7 mph -999.0 mph 26 % 0 in
13:15 66.0 °F 29.2 °F 30.30 in WNW 3.2 mph -999.0 mph 25 % 0 in
13:30 66.6 °F 28.7 °F 30.30 in WNW 6.3 mph -999.0 mph 24 % 0 in
13:46 66.9 °F 28.9 °F 30.29 in SSW 3.2 mph -999.0 mph 24 % 0 in
14:01 67.3 °F 28.2 °F 30.29 in West 2.2 mph -999.0 mph 23 % 0 in
14:16 65.5 °F 31.5 °F 30.29 in WNW 2.2 mph -999.0 mph 28 % 0 in
14:31 67.1 °F 31.1 °F 30.29 in NW 2.7 mph -999.0 mph 26 % 0 in
14:47 66.2 °F 31.2 °F 30.29 in WSW 1.1 mph -999.0 mph 27 % 0 in
15:02 65.1 °F 33.7 °F 30.29 in WNW 2.7 mph -999.0 mph 31 % 0 in
15:17 64.0 °F 32.8 °F 30.28 in NNE 2.7 mph -999.0 mph 31 % 0 in
15:32 63.5 °F 33.9 °F 30.28 in NW 2.7 mph -999.0 mph 33 % 0 in
15:47 62.8 °F 34.0 °F 30.28 in WNW 3.2 mph -999.0 mph 34 % 0 in
16:03 63.3 °F 32.9 °F 30.28 in North 3.2 mph -999.0 mph 32 % 0 in
16:18 63.5 °F 33.1 °F 30.28 in South 1.7 mph -999.0 mph 32 % 0 in
16:33 62.8 °F 34.0 °F 30.28 in NW 5.3 mph -999.0 mph 34 % 0 in
16:48 62.2 °F 34.2 °F 30.28 in NW 2.7 mph -999.0 mph 35 % 0 in
17:03 61.9 °F 33.9 °F 30.28 in North 2.7 mph -999.0 mph 35 % 0 in
17:19 61.7 °F 31.5 °F 30.28 in ESE 2.7 mph -999.0 mph 32 % 0 in
17:34 64.9 °F 33.5 °F 30.28 in NNW 3.2 mph -999.0 mph 31 % 0 in
17:49 61.7 °F 33.0 °F 30.28 in West 1.7 mph -999.0 mph 34 % 0 in
18:04 59.0 °F 32.1 °F 30.28 in Calm   -999.0 mph 36 % 0 in
18:19 57.2 °F 31.8 °F 30.29 in Calm   -999.0 mph 38 % 0 in
18:35 55.8 °F 31.8 °F 30.29 in South 2.2 mph -999.0 mph 40 % 0 in
18:50 53.8 °F 31.2 °F 30.29 in South 2.7 mph -999.0 mph 42 % 0 in
19:05 52.3 °F 31.0 °F 30.29 in SSW 2.2 mph -999.0 mph 44 % 0 in
19:20 50.7 °F 30.7 °F 30.29 in Calm   -999.0 mph 46 % 0 in
19:36 48.7 °F 31.9 °F 30.30 in SSE 1.7 mph -999.0 mph 52 % 0 in
19:51 47.8 °F 31.5 °F 30.30 in South 2.2 mph -999.0 mph 53 % 0 in
20:06 46.0 °F 30.7 °F 30.31 in Calm   -999.0 mph 55 % 0 in
20:21 44.6 °F 31.2 °F 30.31 in Calm   -999.0 mph 59 % 0 in
20:36 43.5 °F 30.9 °F 30.31 in Calm   -999.0 mph 61 % 0 in
20:52 42.4 °F 31.8 °F 30.31 in Calm   -999.0 mph 66 % 0 in
21:07 41.5 °F 32.1 °F 30.32 in Calm   -999.0 mph 69 % 0 in
21:22 41.4 °F 32.3 °F 30.32 in Calm   -999.0 mph 70 % 0 in
21:37 40.3 °F 32.3 °F 30.32 in Calm   -999.0 mph 73 % 0 in
21:52 39.9 °F 33.0 °F 30.32 in Calm   -999.0 mph 76 % 0 in
22:08 39.4 °F 33.4 °F 30.33 in Calm   -999.0 mph 79 % 0 in
22:23 38.7 °F 33.1 °F 30.33 in Calm   -999.0 mph 80 % 0 in
22:38 38.3 °F 33.0 °F 30.33 in Calm   -999.0 mph 81 % 0 in
22:53 38.1 °F 32.5 °F 30.33 in Calm   -999.0 mph 80 % 0 in
23:08 37.6 °F 32.0 °F 30.32 in Calm   -999.0 mph 80 % 0 in
23:24 37.2 °F 32.2 °F 30.32 in Calm   -999.0 mph 82 % 0 in
23:39 36.5 °F 30.9 °F 30.32 in Calm   -999.0 mph 80 % 0 in
23:54 36.1 °F 30.2 °F 30.31 in Calm   -999.0 mph 79 % 0 in
Big Bear CA Weather
Compliments of Weather Underground - 1.5 mb